Time;durP1;ratioP1;P1;durP2;ratioP2;P2;SDS_P1;SDS_P2;PMS_P1;PMS_P2;Temp;Humidity;BMP_temperature;BMP_pressure;BME280_temperature;BME280_humidity;BME280_pressure;Samples;Min_cycle;Max_cycle;Signal;HPM_P1;HPM_P2
2023/10/26 00:00:52;;;;;;;121.40;83.30;;;26.40;99.90;;;;;;5051575;28;20124;-66
2023/10/26 00:03:19;;;;;;;112.70;77.30;;;26.40;99.90;;;;;;5053309;28;20388;-65
2023/10/26 00:05:47;;;;;;;130.32;85.25;;;26.40;99.90;;;;;;5055837;28;20032;-65
2023/10/26 00:08:14;;;;;;;126.80;84.10;;;26.50;99.90;;;;;;5053658;28;20470;-65
2023/10/26 00:10:41;;;;;;;127.05;82.60;;;26.60;99.90;;;;;;5056077;28;20084;-66
2023/10/26 00:13:08;;;;;;;123.78;82.53;;;26.60;99.90;;;;;;5055817;28;20021;-64
2023/10/26 00:15:35;;;;;;;119.45;78.55;;;26.60;99.90;;;;;;5055911;28;20492;-64
2023/10/26 00:18:01;;;;;;;113.10;77.63;;;26.70;99.90;;;;;;5055724;28;20029;-64
2023/10/26 00:20:28;;;;;;;121.90;78.35;;;26.70;99.90;;;;;;5055700;28;20013;-64
2023/10/26 00:22:55;;;;;;;124.07;80.18;;;26.70;99.90;;;;;;5055670;28;20025;-63
2023/10/26 00:25:21;;;;;;;117.18;78.85;;;26.80;99.90;;;;;;5056223;28;20016;-65
2023/10/26 00:27:48;;;;;;;116.88;79.47;;;26.80;99.90;;;;;;5053382;28;20020;-63
2023/10/26 00:30:15;;;;;;;131.07;83.75;;;26.80;99.90;;;;;;5055353;28;20143;-66
2023/10/26 00:32:42;;;;;;;130.18;81.25;;;26.90;99.90;;;;;;5054942;28;20032;-67
2023/10/26 00:35:09;;;;;;;124.10;80.10;;;26.90;99.90;;;;;;5055411;28;20032;-64
2023/10/26 00:37:36;;;;;;;131.55;85.05;;;27.00;99.90;;;;;;5055460;28;20020;-65
2023/10/26 00:40:03;;;;;;;147.63;92.25;;;27.00;99.90;;;;;;5056122;28;20143;-65
2023/10/26 00:42:30;;;;;;;142.30;91.35;;;27.10;99.90;;;;;;5055615;28;20083;-65
2023/10/26 00:44:57;;;;;;;132.45;86.22;;;27.20;99.90;;;;;;5055816;28;20064;-64
2023/10/26 00:47:24;;;;;;;124.90;83.55;;;27.30;99.90;;;;;;5055731;28;20013;-65
2023/10/26 00:49:52;;;;;;;129.23;84.95;;;27.40;99.90;;;;;;5055551;28;20470;-63
2023/10/26 00:52:20;;;;;;;126.65;83.97;;;27.40;99.90;;;;;;5055161;28;20025;-63
2023/10/26 00:54:47;;;;;;;130.48;84.85;;;27.50;99.90;;;;;;5054568;28;20029;-63
2023/10/26 00:57:17;;;;;;;141.05;88.57;;;27.50;99.90;;;;;;5054300;28;20025;-64
2023/10/26 00:59:46;;;;;;;131.25;87.45;;;27.60;99.90;;;;;;5054802;28;20025;-64
2023/10/26 01:02:14;;;;;;;136.63;90.55;;;27.70;99.90;;;;;;5054136;28;20551;-65
2023/10/26 01:04:41;;;;;;;132.27;88.47;;;27.70;99.90;;;;;;5053825;28;20057;-65
2023/10/26 01:07:08;;;;;;;148.13;91.05;;;27.70;99.90;;;;;;5054033;28;20096;-65
2023/10/26 01:09:35;;;;;;;141.48;94.22;;;27.80;99.90;;;;;;5054399;28;20029;-66
2023/10/26 01:12:02;;;;;;;148.45;97.57;;;27.80;99.90;;;;;;5053525;28;20584;-64
2023/10/26 01:14:29;;;;;;;141.23;93.10;;;27.90;99.90;;;;;;5054597;28;20052;-64
2023/10/26 01:16:56;;;;;;;146.20;97.18;;;27.90;99.90;;;;;;5055169;28;20100;-64
2023/10/26 01:19:40;;;;;;;145.63;100.20;;;28.00;99.90;;;;;;5054817;28;20036;-66
2023/10/26 01:22:07;;;;;;;150.90;98.28;;;28.10;99.90;;;;;;5055117;28;20020;-66
2023/10/26 01:24:34;;;;;;;134.63;92.45;;;28.10;99.90;;;;;;5054893;28;20053;-66
2023/10/26 01:27:01;;;;;;;135.13;93.13;;;28.20;99.90;;;;;;5054974;28;20017;-64
2023/10/26 01:29:28;;;;;;;134.68;93.82;;;28.40;99.90;;;;;;5054736;28;20020;-66
2023/10/26 01:31:55;;;;;;;131.40;89.70;;;28.50;99.90;;;;;;5054567;28;20033;-65
2023/10/26 01:34:21;;;;;;;129.38;89.38;;;28.50;99.90;;;;;;5054895;28;20025;-66
2023/10/26 01:36:48;;;;;;;129.38;90.13;;;28.60;99.90;;;;;;5054047;28;20407;-65
2023/10/26 01:39:17;;;;;;;134.73;91.65;;;28.80;99.90;;;;;;5054564;28;20052;-66
2023/10/26 01:41:44;;;;;;;128.27;89.68;;;28.80;99.90;;;;;;5054627;28;20057;-64
2023/10/26 01:44:11;;;;;;;131.27;86.22;;;28.90;99.90;;;;;;5054710;28;20021;-64
2023/10/26 01:46:37;;;;;;;119.40;81.40;;;29.00;99.90;;;;;;5054540;28;20028;-63
2023/10/26 01:49:05;;;;;;;107.32;77.05;;;29.10;99.90;;;;;;5053371;28;20029;-66
2023/10/26 01:51:31;;;;;;;108.78;78.75;;;29.20;99.90;;;;;;5054412;28;20075;-66
2023/10/26 01:53:58;;;;;;;125.55;92.35;;;29.30;99.90;;;;;;5054440;28;20032;-65
2023/10/26 01:56:25;;;;;;;127.88;92.90;;;29.40;99.90;;;;;;5054351;28;20029;-65
2023/10/26 01:58:52;;;;;;;163.77;110.47;;;29.50;99.90;;;;;;5054483;28;20115;-70
2023/10/26 02:01:19;;;;;;;176.48;128.07;;;29.70;99.90;;;;;;5054184;28;20516;-61
2023/10/26 02:03:46;;;;;;;103.90;74.13;;;29.70;99.90;;;;;;5053013;28;20278;-66
2023/10/26 02:06:14;;;;;;;93.53;68.57;;;29.80;99.90;;;;;;5054275;28;20048;-66
2023/10/26 02:08:41;;;;;;;100.53;70.65;;;29.80;99.90;;;;;;5054119;28;20377;-65
2023/10/26 02:11:08;;;;;;;91.97;69.75;;;29.80;99.90;;;;;;5054094;28;20028;-66
2023/10/26 02:13:36;;;;;;;99.00;72.22;;;29.90;99.90;;;;;;5054091;28;20501;-66
2023/10/26 02:16:03;;;;;;;116.93;80.22;;;30.00;99.90;;;;;;5054109;28;20057;-66
2023/10/26 02:18:30;;;;;;;115.28;80.43;;;30.00;99.90;;;;;;5053934;28;20620;-65
2023/10/26 02:20:58;;;;;;;109.30;74.78;;;30.00;99.90;;;;;;5053979;28;20018;-65
2023/10/26 02:23:25;;;;;;;115.55;79.72;;;30.10;99.90;;;;;;5053173;28;20049;-66
2023/10/26 02:25:52;;;;;;;111.13;76.18;;;30.20;99.90;;;;;;5053822;28;20017;-65
2023/10/26 02:28:19;;;;;;;102.68;76.45;;;30.20;99.90;;;;;;5053862;28;20021;-66
2023/10/26 02:30:46;;;;;;;109.28;76.38;;;30.20;99.90;;;;;;5053744;28;20025;-65
2023/10/26 02:33:13;;;;;;;112.88;76.68;;;30.10;99.90;;;;;;5053728;28;20032;-66
2023/10/26 02:35:40;;;;;;;123.70;92.72;;;30.20;99.90;;;;;;5053724;28;20047;-66
2023/10/26 02:38:07;;;;;;;104.75;78.05;;;30.20;99.90;;;;;;5053744;28;20032;-66
2023/10/26 02:40:36;;;;;;;94.63;70.70;;;30.20;99.90;;;;;;5053438;28;20466;-65
2023/10/26 02:43:04;;;;;;;104.95;74.55;;;30.20;99.90;;;;;;5053577;28;20539;-66
2023/10/26 02:45:32;;;;;;;106.15;76.28;;;30.10;99.90;;;;;;5053567;28;20023;-66
2023/10/26 02:47:59;;;;;;;107.13;77.70;;;30.30;99.90;;;;;;5053519;28;20027;-66
2023/10/26 02:50:27;;;;;;;97.60;70.30;;;30.30;99.90;;;;;;5053548;28;20051;-66
2023/10/26 02:52:54;;;;;;;94.07;66.60;;;30.30;99.90;;;;;;5053447;28;20021;-65
2023/10/26 02:55:21;;;;;;;95.03;69.63;;;30.40;99.90;;;;;;5053661;28;20057;-66
2023/10/26 02:57:48;;;;;;;104.70;71.63;;;30.40;99.90;;;;;;5053364;28;20028;-66
2023/10/26 03:00:16;;;;;;;92.63;69.32;;;30.40;99.90;;;;;;5053157;28;20052;-66
2023/10/26 03:02:43;;;;;;;99.70;71.35;;;30.40;99.90;;;;;;5053198;28;20110;-66
2023/10/26 03:05:09;;;;;;;101.07;73.35;;;30.40;99.90;;;;;;5053382;28;20013;-66
2023/10/26 03:07:36;;;;;;;99.68;72.63;;;30.50;99.90;;;;;;5053228;28;20024;-66
2023/10/26 03:10:05;;;;;;;96.22;70.85;;;30.60;99.90;;;;;;5053496;28;20481;-66
2023/10/26 03:12:31;;;;;;;102.13;75.05;;;30.70;99.90;;;;;;5053275;28;20021;-63
2023/10/26 03:14:59;;;;;;;101.72;70.78;;;30.80;99.90;;;;;;5053283;28;20104;-63
2023/10/26 03:17:26;;;;;;;120.85;85.25;;;30.80;99.90;;;;;;5053121;28;20036;-63
2023/10/26 03:19:53;;;;;;;237.25;172.32;;;30.90;99.90;;;;;;5052472;28;20477;-63
2023/10/26 03:22:20;;;;;;;132.35;97.30;;;30.90;99.90;;;;;;5053207;28;20039;-63
2023/10/26 03:24:48;;;;;;;95.88;69.72;;;31.00;99.90;;;;;;5053240;28;20020;-63
2023/10/26 03:27:15;;;;;;;101.28;78.05;;;31.00;99.90;;;;;;5053320;28;20049;-63
2023/10/26 03:29:42;;;;;;;105.85;73.93;;;31.00;99.90;;;;;;5053176;28;20021;-62
2023/10/26 03:32:08;;;;;;;89.82;71.10;;;31.10;99.90;;;;;;5052998;28;20025;-63
2023/10/26 03:34:35;;;;;;;102.43;72.22;;;31.20;99.90;;;;;;5055234;28;20473;-64
2023/10/26 03:37:02;;;;;;;141.85;112.07;;;31.40;99.90;;;;;;5057323;28;20385;-60
2023/10/26 03:39:30;;;;;;;91.82;71.75;;;31.40;99.90;;;;;;5057568;28;20021;-61
2023/10/26 03:41:57;;;;;;;108.88;81.30;;;31.40;99.90;;;;;;5057409;28;20032;-63
2023/10/26 03:44:23;;;;;;;90.55;65.80;;;31.40;99.90;;;;;;5057258;28;20474;-63
2023/10/26 03:46:52;;;;;;;90.85;67.60;;;31.40;99.90;;;;;;5057487;28;20021;-64
2023/10/26 03:49:19;;;;;;;87.88;63.58;;;31.40;99.90;;;;;;5056567;28;20474;-64
2023/10/26 03:51:48;;;;;;;87.40;63.95;;;31.30;99.90;;;;;;5057160;28;20448;-66
2023/10/26 03:54:15;;;;;;;95.80;68.85;;;31.30;99.90;;;;;;5057280;28;20033;-66
2023/10/26 03:56:42;;;;;;;89.65;68.65;;;31.40;99.90;;;;;;5057378;28;20029;-65
2023/10/26 03:59:09;;;;;;;103.80;82.70;;;31.50;99.90;;;;;;5057342;28;20477;-64
2023/10/26 04:01:35;;;;;;;97.80;73.18;;;31.60;99.90;;;;;;5056938;28;20045;-64
2023/10/26 04:04:03;;;;;;;98.93;75.10;;;31.60;99.90;;;;;;5057294;28;20023;-63
2023/10/26 04:06:30;;;;;;;101.22;74.10;;;31.60;99.90;;;;;;5057170;28;20420;-65
2023/10/26 04:08:57;;;;;;;107.75;77.38;;;31.70;99.90;;;;;;5056562;28;20025;-65
2023/10/26 04:11:24;;;;;;;107.22;80.45;;;31.80;99.90;;;;;;5057310;28;20483;-65
2023/10/26 04:13:53;;;;;;;109.53;82.20;;;31.80;99.90;;;;;;5057171;28;20056;-64
2023/10/26 04:16:22;;;;;;;103.18;77.22;;;32.00;99.90;;;;;;5056957;28;20021;-64
2023/10/26 04:18:49;;;;;;;118.55;84.40;;;32.10;99.90;;;;;;5056965;28;20068;-65
2023/10/26 04:21:16;;;;;;;106.07;79.20;;;32.10;99.90;;;;;;5056880;28;20028;-64
2023/10/26 04:23:43;;;;;;;107.97;81.30;;;32.20;99.90;;;;;;5056537;28;20100;-65
2023/10/26 04:26:12;;;;;;;107.32;82.07;;;32.10;99.90;;;;;;5056689;28;20017;-65
2023/10/26 04:28:40;;;;;;;114.68;81.65;;;32.10;99.90;;;;;;5056351;28;20017;-65
2023/10/26 04:31:07;;;;;;;116.78;85.38;;;32.20;99.90;;;;;;5056179;28;20017;-65
2023/10/26 04:33:33;;;;;;;123.47;87.28;;;32.20;99.90;;;;;;5056142;28;20023;-65
2023/10/26 04:36:02;;;;;;;120.47;86.15;;;32.30;99.90;;;;;;5056100;28;20051;-65
2023/10/26 04:38:29;;;;;;;120.72;88.10;;;32.30;99.90;;;;;;5056235;28;20462;-65
2023/10/26 04:40:58;;;;;;;126.30;89.03;;;32.30;99.90;;;;;;5055919;28;20017;-64
2023/10/26 04:43:26;;;;;;;120.50;85.65;;;32.40;99.90;;;;;;5055888;28;20063;-65
2023/10/26 04:45:53;;;;;;;118.43;86.95;;;32.40;99.90;;;;;;5055125;28;20032;-65
2023/10/26 04:48:19;;;;;;;118.57;86.45;;;32.40;99.90;;;;;;5055915;28;20025;-66
2023/10/26 04:50:46;;;;;;;134.57;96.45;;;32.50;99.90;;;;;;5055843;28;20032;-64
2023/10/26 04:53:13;;;;;;;224.35;170.45;;;32.60;99.90;;;;;;5055586;28;20051;-65
2023/10/26 04:55:40;;;;;;;154.38;113.53;;;32.60;99.90;;;;;;5055988;28;20433;-65
2023/10/26 04:58:08;;;;;;;129.88;99.43;;;32.70;99.90;;;;;;5055677;28;20013;-66
2023/10/26 05:00:35;;;;;;;262.02;178.88;;;32.80;99.90;;;;;;5055387;28;20047;-65
2023/10/26 05:03:02;;;;;;;119.75;88.20;;;32.90;99.90;;;;;;5054957;28;20040;-65
2023/10/26 05:05:29;;;;;;;121.15;87.82;;;32.90;99.90;;;;;;5055249;28;20028;-65
2023/10/26 05:07:56;;;;;;;135.85;100.05;;;32.90;99.90;;;;;;5055313;28;20063;-65
2023/10/26 05:10:23;;;;;;;111.93;83.60;;;32.90;99.90;;;;;;5055451;28;20024;-65
2023/10/26 05:12:50;;;;;;;121.55;85.50;;;33.10;99.90;;;;;;5055401;28;20021;-66
2023/10/26 05:15:18;;;;;;;110.72;79.90;;;33.20;99.90;;;;;;5052403;28;20111;-65
2023/10/26 05:17:45;;;;;;;107.75;81.63;;;33.20;99.90;;;;;;5052916;28;20055;-65
2023/10/26 05:20:12;;;;;;;112.20;83.68;;;33.20;99.90;;;;;;5054176;28;20036;-65
2023/10/26 05:22:39;;;;;;;105.40;79.63;;;33.20;99.90;;;;;;5052666;28;20025;-66
2023/10/26 05:25:08;;;;;;;108.97;82.22;;;33.10;99.90;;;;;;5051354;28;20013;-62
2023/10/26 05:27:34;;;;;;;102.60;77.53;;;33.10;99.90;;;;;;5052496;28;20116;-63
2023/10/26 05:30:02;;;;;;;108.75;81.22;;;33.10;99.90;;;;;;5051209;28;20017;-63
2023/10/26 05:32:29;;;;;;;109.13;79.35;;;33.20;99.90;;;;;;5049915;28;20436;-62
2023/10/26 05:34:56;;;;;;;174.82;126.13;;;33.30;99.90;;;;;;5054868;28;20070;-63
2023/10/26 05:37:23;;;;;;;170.70;128.07;;;33.40;99.90;;;;;;5054991;28;20066;-65
2023/10/26 05:39:49;;;;;;;137.13;103.57;;;33.40;99.90;;;;;;5055175;28;20473;-62
2023/10/26 05:42:16;;;;;;;160.88;121.68;;;33.40;99.90;;;;;;5055426;28;20385;-63
2023/10/26 05:44:43;;;;;;;122.80;90.55;;;33.50;99.90;;;;;;5055692;28;20424;-65
2023/10/26 05:47:10;;;;;;;117.43;83.93;;;33.60;99.90;;;;;;5056382;28;20032;-66
2023/10/26 05:49:38;;;;;;;115.45;80.88;;;33.70;99.90;;;;;;5055927;28;20469;-65
2023/10/26 05:52:05;;;;;;;107.03;81.57;;;33.80;99.90;;;;;;5055582;28;20055;-63
2023/10/26 05:54:32;;;;;;;105.55;78.50;;;33.90;99.90;;;;;;5055642;28;20044;-66
2023/10/26 05:57:00;;;;;;;102.63;76.95;;;33.90;99.90;;;;;;5055593;28;20078;-64
2023/10/26 05:59:26;;;;;;;107.07;78.70;;;33.80;99.90;;;;;;5053436;28;20373;-64
2023/10/26 06:01:53;;;;;;;103.95;78.18;;;33.80;99.90;;;;;;5054641;28;20045;-64
2023/10/26 06:04:20;;;;;;;104.35;74.88;;;33.70;99.90;;;;;;5052208;28;20082;-64
2023/10/26 06:06:47;;;;;;;97.95;76.63;;;33.80;99.90;;;;;;5054797;28;20495;-64
2023/10/26 06:09:14;;;;;;;112.00;86.78;;;33.80;99.90;;;;;;5054654;28;20028;-64
2023/10/26 06:11:40;;;;;;;125.07;94.47;;;33.90;99.90;;;;;;5054292;28;20021;-64
2023/10/26 06:14:08;;;;;;;137.48;102.80;;;33.90;99.90;;;;;;5054229;28;20017;-64
2023/10/26 06:16:35;;;;;;;153.98;111.18;;;33.90;99.90;;;;;;5054517;28;20066;-64
2023/10/26 06:19:02;;;;;;;110.20;80.38;;;33.90;99.90;;;;;;5054526;28;20024;-65
2023/10/26 06:21:29;;;;;;;108.07;79.45;;;33.90;99.90;;;;;;5054095;28;20024;-64
2023/10/26 06:23:56;;;;;;;108.03;79.38;;;33.90;99.90;;;;;;5054209;28;20529;-65
2023/10/26 06:26:23;;;;;;;98.95;75.10;;;33.90;99.90;;;;;;5054170;28;20045;-65
2023/10/26 06:28:50;;;;;;;122.28;94.82;;;34.00;99.90;;;;;;5052493;28;20469;-65
2023/10/26 06:31:16;;;;;;;98.70;75.32;;;34.10;99.90;;;;;;5056089;28;20041;-65
2023/10/26 06:33:44;;;;;;;102.05;74.88;;;34.20;99.90;;;;;;5055034;28;20021;-65
2023/10/26 06:36:11;;;;;;;93.35;72.82;;;34.20;99.90;;;;;;5051622;28;20021;-66
2023/10/26 06:38:39;;;;;;;96.07;72.80;;;34.40;99.90;;;;;;5054051;28;20019;-65
2023/10/26 06:41:07;;;;;;;95.47;74.35;;;34.40;99.90;;;;;;5053966;28;20021;-65
2023/10/26 06:43:34;;;;;;;99.05;76.45;;;34.60;99.50;;;;;;5053540;28;20103;-67
2023/10/26 06:46:00;;;;;;;107.35;77.07;;;34.70;99.90;;;;;;5054166;28;20051;-64
2023/10/26 06:48:27;;;;;;;102.18;75.85;;;34.80;99.50;;;;;;5054338;28;20028;-64
2023/10/26 06:51:04;;;;;;;96.53;74.82;;;34.70;99.50;;;;;;5053746;28;20017;-64
2023/10/26 06:53:31;;;;;;;98.13;76.13;;;34.70;99.30;;;;;;5053707;28;20040;-63
2023/10/26 06:55:58;;;;;;;103.20;78.65;;;34.60;99.90;;;;;;5053758;28;20029;-65
2023/10/26 06:58:25;;;;;;;102.60;75.88;;;34.60;99.70;;;;;;5053666;28;20033;-65
2023/10/26 07:00:52;;;;;;;97.53;74.07;;;34.60;98.80;;;;;;5053453;28;20060;-65
2023/10/26 07:03:19;;;;;;;107.38;79.95;;;34.60;99.60;;;;;;5053845;28;20433;-64
2023/10/26 07:05:47;;;;;;;101.18;78.45;;;34.60;99.90;;;;;;5053676;28;20035;-64
2023/10/26 07:08:14;;;;;;;97.95;75.82;;;34.60;99.20;;;;;;5053913;28;20056;-65
2023/10/26 07:10:41;;;;;;;100.57;80.25;;;34.70;99.10;;;;;;5054396;28;20044;-64
2023/10/26 07:13:08;;;;;;;102.43;77.68;;;34.80;99.20;;;;;;5054516;28;20428;-65
2023/10/26 07:15:36;;;;;;;116.55;83.20;;;34.90;99.50;;;;;;5053954;28;20108;-62
2023/10/26 07:18:04;;;;;;;106.57;79.32;;;35.00;99.20;;;;;;5053751;28;20029;-63
2023/10/26 07:20:31;;;;;;;102.00;77.00;;;35.00;98.70;;;;;;5053452;28;20174;-65
2023/10/26 07:23:01;;;;;;;101.13;77.88;;;34.90;98.50;;;;;;5053239;28;20025;-65
2023/10/26 07:25:27;;;;;;;101.47;76.70;;;34.90;98.50;;;;;;5050897;28;20017;-65
2023/10/26 07:27:54;;;;;;;106.00;76.88;;;34.80;98.60;;;;;;5052988;28;20075;-65
2023/10/26 07:30:21;;;;;;;101.93;76.88;;;34.80;98.30;;;;;;5053136;28;20043;-65
2023/10/26 07:32:48;;;;;;;105.85;78.90;;;34.80;98.10;;;;;;5053628;28;20029;-65
2023/10/26 07:35:15;;;;;;;100.05;77.03;;;34.70;97.90;;;;;;5054082;28;20047;-64
2023/10/26 07:37:42;;;;;;;103.22;77.28;;;34.80;98.30;;;;;;5053714;28;20080;-64
2023/10/26 07:40:09;;;;;;;100.78;75.22;;;34.70;98.60;;;;;;5053312;28;20450;-65
2023/10/26 07:42:36;;;;;;;99.15;78.90;;;34.70;98.60;;;;;;5053188;28;20029;-65
2023/10/26 07:45:03;;;;;;;110.45;80.75;;;34.70;98.40;;;;;;5053309;28;20048;-65
2023/10/26 07:47:30;;;;;;;104.32;79.70;;;34.70;98.30;;;;;;5053236;28;20021;-65
2023/10/26 07:49:57;;;;;;;108.70;81.13;;;34.60;99.20;;;;;;5052162;28;20021;-63
2023/10/26 07:52:24;;;;;;;106.65;80.72;;;34.40;99.70;;;;;;5049588;28;20488;-66
2023/10/26 07:54:50;;;;;;;102.10;79.68;;;34.30;99.90;;;;;;5052439;28;20108;-65
2023/10/26 07:57:19;;;;;;;100.63;77.22;;;34.30;99.90;;;;;;5052761;28;20061;-65
2023/10/26 07:59:46;;;;;;;109.22;78.00;;;34.10;99.90;;;;;;5052571;28;20083;-65
2023/10/26 08:02:13;;;;;;;106.30;80.63;;;34.10;99.90;;;;;;5052613;28;20095;-65
2023/10/26 08:04:39;;;;;;;121.45;83.72;;;34.00;99.90;;;;;;5052706;28;20033;-65
2023/10/26 08:07:06;;;;;;;129.52;86.43;;;34.00;99.90;;;;;;5052879;28;20017;-65
2023/10/26 08:09:33;;;;;;;120.28;85.95;;;33.70;99.90;;;;;;5052765;28;20466;-65
2023/10/26 08:12:00;;;;;;;134.45;92.22;;;33.40;99.90;;;;;;5052499;28;20394;-65
2023/10/26 08:14:29;;;;;;;138.93;94.70;;;33.20;99.90;;;;;;5052753;28;20036;-64
2023/10/26 08:16:57;;;;;;;139.32;97.45;;;33.00;99.90;;;;;;5052652;28;20043;-65
2023/10/26 08:19:25;;;;;;;139.80;96.32;;;32.80;99.90;;;;;;5052486;28;20075;-65
2023/10/26 08:21:52;;;;;;;146.10;102.18;;;32.70;99.90;;;;;;5054958;28;20420;-65
2023/10/26 08:24:19;;;;;;;162.10;113.45;;;32.60;99.90;;;;;;5056187;28;20025;-66
2023/10/26 08:26:47;;;;;;;174.52;125.05;;;32.40;99.90;;;;;;5056009;28;20189;-65
2023/10/26 08:29:13;;;;;;;178.70;133.23;;;32.20;99.90;;;;;;5056242;28;20100;-65
2023/10/26 08:31:41;;;;;;;168.88;122.28;;;31.90;99.90;;;;;;5056129;28;20079;-65
2023/10/26 08:34:08;;;;;;;147.30;110.43;;;31.80;99.90;;;;;;5055929;28;20026;-65
2023/10/26 08:36:35;;;;;;;148.90;110.25;;;31.70;99.90;;;;;;5056043;28;20052;-65
2023/10/26 08:39:01;;;;;;;151.60;109.38;;;31.40;99.90;;;;;;5056014;28;20025;-65
2023/10/26 08:41:33;;;;;;;135.52;101.72;;;31.40;99.90;;;;;;5055645;28;20029;-65
2023/10/26 08:44:00;;;;;;;146.40;104.55;;;31.40;99.90;;;;;;5055817;28;20029;-65
2023/10/26 08:46:29;;;;;;;163.43;112.63;;;31.50;99.90;;;;;;5055755;28;20029;-65
2023/10/26 08:48:58;;;;;;;166.23;117.35;;;31.50;99.90;;;;;;5044464;28;20036;-65
2023/10/26 08:51:27;;;;;;;135.23;97.85;;;31.50;99.90;;;;;;5050613;28;20130;-64
2023/10/26 08:53:56;;;;;;;141.73;98.57;;;31.60;99.90;;;;;;5055712;28;20474;-63
2023/10/26 08:56:24;;;;;;;147.05;99.30;;;31.70;99.90;;;;;;5055634;28;20533;-65
2023/10/26 08:58:59;;;;;;;130.88;94.63;;;31.70;99.90;;;;;;5055842;28;20025;-64
2023/10/26 09:01:25;;;;;;;135.90;97.40;;;31.70;99.90;;;;;;5055547;28;20049;-65
2023/10/26 09:03:52;;;;;;;153.38;104.95;;;31.60;99.90;;;;;;5056179;28;20021;-65
2023/10/26 09:06:19;;;;;;;180.23;114.70;;;31.60;99.90;;;;;;5055131;28;20565;-65
2023/10/26 09:09:02;;;;;;;181.13;120.38;;;31.60;99.90;;;;;;5055144;28;20478;-65
2023/10/26 09:11:30;;;;;;;185.32;117.70;;;31.60;99.90;;;;;;5055313;28;20028;-65
2023/10/26 09:14:14;;;;;;;184.95;120.75;;;31.60;99.90;;;;;;5055212;28;20067;-65
2023/10/26 09:16:41;;;;;;;252.98;161.20;;;31.60;99.90;;;;;;5055291;28;20447;-65
2023/10/26 09:19:08;;;;;;;236.15;151.30;;;31.60;99.90;;;;;;5055185;28;20029;-66
2023/10/26 09:21:56;;;;;;;285.83;183.80;;;31.70;99.90;;;;;;5055341;28;20572;-65
2023/10/26 09:24:27;;;;;;;203.98;135.35;;;31.70;99.90;;;;;;5055217;28;20029;-65
2023/10/26 09:26:55;;;;;;;149.23;100.13;;;31.70;99.90;;;;;;5055042;28;20127;-65
2023/10/26 09:29:43;;;;;;;131.63;95.88;;;31.70;99.90;;;;;;5055135;28;20024;-65
2023/10/26 09:32:10;;;;;;;138.98;97.57;;;31.70;99.90;;;;;;5054631;28;20548;-65
2023/10/26 09:34:41;;;;;;;130.55;94.20;;;31.70;99.90;;;;;;5054958;28;20021;-66
2023/10/26 09:37:09;;;;;;;146.95;101.35;;;31.70;99.90;;;;;;5054117;28;20033;-65
2023/10/26 09:39:38;;;;;;;141.88;101.95;;;31.70;99.90;;;;;;5054863;28;20049;-65
2023/10/26 09:42:09;;;;;;;145.77;102.10;;;31.60;99.90;;;;;;5054802;28;20033;-65
2023/10/26 09:44:36;;;;;;;151.95;101.20;;;31.60;99.90;;;;;;5054645;28;20445;-62
2023/10/26 09:47:04;;;;;;;162.45;110.88;;;31.60;99.90;;;;;;5054670;28;20025;-65
2023/10/26 09:49:31;;;;;;;296.10;164.90;;;31.60;99.90;;;;;;5053591;28;20044;-64
2023/10/26 09:51:58;;;;;;;309.02;181.27;;;31.60;99.90;;;;;;5054350;28;20037;-65
2023/10/26 09:54:38;;;;;;;256.17;149.85;;;31.60;99.90;;;;;;5054689;28;20037;-68
2023/10/26 09:57:13;;;;;;;219.98;137.43;;;31.60;99.90;;;;;;5052942;28;20029;-66
2023/10/26 09:59:41;;;;;;;227.40;147.57;;;31.60;99.90;;;;;;5054101;28;20017;-63
2023/10/26 10:02:17;;;;;;;219.35;137.27;;;31.60;99.90;;;;;;5053457;28;20453;-66
2023/10/26 10:04:44;;;;;;;203.20;133.70;;;31.60;99.90;;;;;;5053833;28;20029;-65
2023/10/26 10:07:17;;;;;;;234.52;145.52;;;31.60;99.90;;;;;;5050820;28;20100;-64
2023/10/26 10:10:05;;;;;;;250.75;156.30;;;31.60;99.90;;;;;;5051561;28;20017;-64
2023/10/26 10:12:34;;;;;;;245.27;156.77;;;31.60;99.90;;;;;;5053655;28;20082;-64
2023/10/26 10:15:06;;;;;;;220.23;146.50;;;31.50;99.90;;;;;;5053926;28;20377;-65
2023/10/26 10:17:43;;;;;;;;;;;31.50;99.90;;;;;;5051902;28;20108;-65
2023/10/26 10:20:29;;;;;;;298.45;187.93;;;31.60;99.90;;;;;;5053863;28;19912;-65
2023/10/26 10:22:58;;;;;;;296.17;189.70;;;31.50;99.90;;;;;;5051795;28;20542;-65
2023/10/26 10:25:56;;;;;;;290.40;172.45;;;31.50;99.90;;;;;;5053533;28;20458;-65
2023/10/26 10:28:23;;;;;;;300.15;192.50;;;31.50;99.90;;;;;;5039830;28;20035;-64
2023/10/26 10:30:55;;;;;;;318.73;208.57;;;31.50;99.90;;;;;;5053276;28;20013;-64
2023/10/26 10:33:25;;;;;;;342.63;221.23;;;31.50;99.90;;;;;;5053423;28;20470;-63
2023/10/26 10:36:02;;;;;;;329.30;219.38;;;31.50;99.90;;;;;;5050965;28;20025;-64
2023/10/26 10:38:30;;;;;;;358.85;235.30;;;31.50;99.90;;;;;;5053331;28;20043;-65
2023/10/26 10:40:57;;;;;;;389.05;256.95;;;31.50;99.90;;;;;;5053275;28;20096;-64
2023/10/26 10:43:35;;;;;;;409.75;269.65;;;31.50;99.90;;;;;;5052280;28;20528;-63
2023/10/26 10:46:13;;;;;;;369.15;241.13;;;31.50;99.90;;;;;;5050717;28;20056;-63
2023/10/26 10:49:09;;;;;;;312.67;208.25;;;31.40;99.90;;;;;;5052167;28;20029;-62
2023/10/26 10:51:38;;;;;;;288.02;184.70;;;31.40;99.90;;;;;;5051796;28;20029;-63
2023/10/26 10:54:09;;;;;;;302.80;194.55;;;31.40;99.90;;;;;;5052644;28;20033;-63
2023/10/26 10:56:41;;;;;;;337.52;213.48;;;31.40;99.90;;;;;;5050258;28;20033;-64
2023/10/26 10:59:17;;;;;;;361.48;230.68;;;31.40;99.90;;;;;;5052816;28;20020;-64
2023/10/26 11:01:45;;;;;;;355.95;219.85;;;31.40;99.90;;;;;;5051682;28;20080;-65
2023/10/26 11:04:14;;;;;;;321.23;198.93;;;31.40;99.90;;;;;;5050187;28;20127;-64
2023/10/26 11:06:45;;;;;;;264.23;169.10;;;31.40;99.90;;;;;;5052765;28;20405;-64
2023/10/26 11:09:22;;;;;;;236.35;154.98;;;31.50;99.90;;;;;;5052372;28;20017;-64
2023/10/26 11:11:48;;;;;;;211.07;141.90;;;31.50;99.90;;;;;;5052959;28;20344;-63
2023/10/26 11:14:17;;;;;;;203.25;139.98;;;31.60;99.90;;;;;;5050151;28;20021;-64
2023/10/26 11:16:45;;;;;;;198.57;134.02;;;31.60;99.90;;;;;;5052741;28;20106;-64
2023/10/26 11:19:11;;;;;;;194.32;133.40;;;31.60;99.90;;;;;;5052611;28;20070;-64
2023/10/26 11:21:39;;;;;;;199.35;136.63;;;31.60;99.90;;;;;;5052099;28;20029;-63
2023/10/26 11:24:07;;;;;;;198.48;134.57;;;31.60;99.90;;;;;;5052717;28;20050;-62
2023/10/26 11:26:34;;;;;;;196.68;133.27;;;31.70;99.90;;;;;;5052622;28;20025;-64
2023/10/26 11:29:03;;;;;;;197.15;132.70;;;31.70;99.90;;;;;;5052919;28;20029;-63
2023/10/26 11:31:41;;;;;;;194.15;135.65;;;31.70;99.90;;;;;;5052891;28;20494;-63
2023/10/26 11:34:09;;;;;;;199.93;133.60;;;31.70;99.90;;;;;;5053023;28;20413;-63
2023/10/26 11:36:38;;;;;;;191.77;132.68;;;31.70;99.90;;;;;;5053072;28;20470;-63
2023/10/26 11:39:05;;;;;;;193.27;132.23;;;31.60;99.90;;;;;;5053048;28;20397;-63
2023/10/26 11:41:34;;;;;;;188.00;130.30;;;31.70;99.90;;;;;;5052817;28;20024;-64
2023/10/26 11:44:01;;;;;;;193.98;133.50;;;31.60;99.90;;;;;;5053109;28;20108;-63
2023/10/26 11:46:32;;;;;;;188.73;130.75;;;31.60;99.90;;;;;;5052924;28;20100;-62
2023/10/26 11:49:00;;;;;;;194.55;128.75;;;31.60;99.90;;;;;;5051219;28;20108;-63
2023/10/26 11:51:28;;;;;;;180.45;127.97;;;31.60;99.90;;;;;;5052985;28;20064;-62
2023/10/26 11:53:56;;;;;;;175.55;124.00;;;31.60;99.90;;;;;;5052782;28;20032;-63
2023/10/26 11:56:23;;;;;;;183.10;123.80;;;31.50;99.90;;;;;;5056235;28;20093;-62
2023/10/26 11:58:49;;;;;;;176.35;121.50;;;31.50;99.90;;;;;;5056523;28;20017;-62
2023/10/26 12:01:17;;;;;;;165.23;116.60;;;31.50;99.90;;;;;;5056272;28;20464;-62
2023/10/26 12:03:45;;;;;;;178.75;119.32;;;31.50;99.90;;;;;;5056739;28;20021;-62
2023/10/26 12:06:13;;;;;;;177.63;118.93;;;31.50;99.90;;;;;;5056780;28;20024;-62
2023/10/26 12:08:39;;;;;;;158.20;113.68;;;31.50;99.90;;;;;;5056524;28;20031;-62
2023/10/26 12:11:06;;;;;;;169.95;116.25;;;31.40;99.90;;;;;;5056732;28;20240;-62
2023/10/26 12:13:35;;;;;;;156.80;108.07;;;31.40;99.90;;;;;;5056603;28;20107;-62
2023/10/26 12:16:02;;;;;;;162.32;109.22;;;31.40;99.90;;;;;;5056604;28;20428;-62
2023/10/26 12:18:29;;;;;;;152.10;109.85;;;31.40;99.90;;;;;;5056572;28;20025;-62
2023/10/26 12:20:55;;;;;;;143.98;102.45;;;31.30;99.90;;;;;;5056414;28;20032;-62